sensor_id;sensor_type;location;lat;lon;timestamp;pressure;altitude;pressure_sealevel;temperature;humidity
63903;BME280;50072;50.678;13.938;2023-04-29T00:00:18;99133.91;;;10.22;100.00
63903;BME280;50072;50.678;13.938;2023-04-29T00:03:16;99134.22;;;10.12;100.00
63903;BME280;50072;50.678;13.938;2023-04-29T00:05:46;99140.38;;;10.14;100.00
63903;BME280;50072;50.678;13.938;2023-04-29T00:08:17;99138.72;;;10.10;100.00
63903;BME280;50072;50.678;13.938;2023-04-29T00:10:46;99140.16;;;10.22;100.00
63903;BME280;50072;50.678;13.938;2023-04-29T00:13:16;99130.97;;;10.31;100.00
63903;BME280;50072;50.678;13.938;2023-04-29T00:15:48;99138.34;;;10.23;100.00
63903;BME280;50072;50.678;13.938;2023-04-29T00:18:16;99130.44;;;10.19;100.00
63903;BME280;50072;50.678;13.938;2023-04-29T00:20:46;99119.84;;;10.16;100.00
63903;BME280;50072;50.678;13.938;2023-04-29T00:23:18;99115.41;;;10.15;100.00
63903;BME280;50072;50.678;13.938;2023-04-29T00:25:45;99103.84;;;10.15;100.00
63903;BME280;50072;50.678;13.938;2023-04-29T00:28:16;99111.19;;;10.08;100.00
63903;BME280;50072;50.678;13.938;2023-04-29T00:30:46;99121.66;;;10.14;100.00
63903;BME280;50072;50.678;13.938;2023-04-29T00:33:19;99135.00;;;10.16;100.00
63903;BME280;50072;50.678;13.938;2023-04-29T00:35:46;99141.59;;;10.04;100.00
63903;BME280;50072;50.678;13.938;2023-04-29T00:38:18;99147.31;;;9.92;100.00
63903;BME280;50072;50.678;13.938;2023-04-29T00:40:46;99137.44;;;9.95;100.00
63903;BME280;50072;50.678;13.938;2023-04-29T00:43:16;99135.16;;;10.11;100.00
63903;BME280;50072;50.678;13.938;2023-04-29T00:45:47;99134.03;;;10.18;100.00
63903;BME280;50072;50.678;13.938;2023-04-29T00:48:16;99135.88;;;10.16;100.00
63903;BME280;50072;50.678;13.938;2023-04-29T00:50:44;99127.28;;;10.07;100.00
63903;BME280;50072;50.678;13.938;2023-04-29T00:53:16;99123.81;;;10.03;100.00
63903;BME280;50072;50.678;13.938;2023-04-29T00:55:49;99122.16;;;9.99;100.00
63903;BME280;50072;50.678;13.938;2023-04-29T00:58:23;99121.13;;;10.03;100.00
63903;BME280;50072;50.678;13.938;2023-04-29T01:01:02;99120.44;;;9.98;100.00
63903;BME280;50072;50.678;13.938;2023-04-29T01:03:38;99122.16;;;9.99;100.00
63903;BME280;50072;50.678;13.938;2023-04-29T01:09:28;99137.22;;;10.01;100.00
63903;BME280;50072;50.678;13.938;2023-04-29T01:14:53;99135.78;;;10.19;100.00
63903;BME280;50072;50.678;13.938;2023-04-29T01:17:40;99142.19;;;10.14;100.00
63903;BME280;50072;50.678;13.938;2023-04-29T01:20:16;99135.56;;;9.97;100.00
63903;BME280;50072;50.678;13.938;2023-04-29T01:22:49;99146.19;;;10.00;100.00
63903;BME280;50072;50.678;13.938;2023-04-29T01:25:16;99141.81;;;9.98;100.00
63903;BME280;50072;50.678;13.938;2023-04-29T01:31:05;99153.22;;;10.03;100.00
63903;BME280;50072;50.678;13.938;2023-04-29T01:33:53;99143.97;;;10.15;100.00
63903;BME280;50072;50.678;13.938;2023-04-29T01:44:46;99124.13;;;9.94;100.00
63903;BME280;50072;50.678;13.938;2023-04-29T01:47:16;99125.88;;;9.95;100.00
63903;BME280;50072;50.678;13.938;2023-04-29T01:49:48;99124.06;;;9.95;100.00
63903;BME280;50072;50.678;13.938;2023-04-29T01:52:16;99121.44;;;9.94;100.00
63903;BME280;50072;50.678;13.938;2023-04-29T01:54:46;99125.88;;;9.95;100.00
63903;BME280;50072;50.678;13.938;2023-04-29T01:57:17;99131.97;;;9.98;100.00
63903;BME280;50072;50.678;13.938;2023-04-29T01:59:45;99127.53;;;9.97;100.00
63903;BME280;50072;50.678;13.938;2023-04-29T02:02:16;99131.81;;;10.03;100.00
63903;BME280;50072;50.678;13.938;2023-04-29T02:04:46;99148.03;;;9.98;100.00
63903;BME280;50072;50.678;13.938;2023-04-29T02:07:16;99148.50;;;9.83;100.00
63903;BME280;50072;50.678;13.938;2023-04-29T02:09:49;99136.13;;;9.79;100.00
63903;BME280;50072;50.678;13.938;2023-04-29T02:12:16;99130.47;;;9.90;100.00
63903;BME280;50072;50.678;13.938;2023-04-29T02:14:41;99125.22;;;9.87;100.00
63903;BME280;50072;50.678;13.938;2023-04-29T02:17:13;99131.69;;;9.79;100.00
63903;BME280;50072;50.678;13.938;2023-04-29T02:19:46;99137.75;;;9.84;100.00
63903;BME280;50072;50.678;13.938;2023-04-29T02:22:18;99136.72;;;9.89;100.00
63903;BME280;50072;50.678;13.938;2023-04-29T02:24:46;99101.31;;;9.82;100.00
63903;BME280;50072;50.678;13.938;2023-04-29T02:27:16;99103.50;;;9.69;100.00
63903;BME280;50072;50.678;13.938;2023-04-29T02:29:47;99127.56;;;9.67;100.00
63903;BME280;50072;50.678;13.938;2023-04-29T02:32:16;99141.16;;;9.60;100.00
63903;BME280;50072;50.678;13.938;2023-04-29T02:34:46;99123.13;;;9.68;100.00
63903;BME280;50072;50.678;13.938;2023-04-29T02:37:18;99114.34;;;9.63;100.00
63903;BME280;50072;50.678;13.938;2023-04-29T02:39:46;99113.66;;;9.56;100.00
63903;BME280;50072;50.678;13.938;2023-04-29T02:42:16;99115.50;;;9.54;100.00
63903;BME280;50072;50.678;13.938;2023-04-29T02:44:47;99112.06;;;9.50;100.00
63903;BME280;50072;50.678;13.938;2023-04-29T02:47:16;99122.00;;;9.45;100.00
63903;BME280;50072;50.678;13.938;2023-04-29T02:49:46;99128.91;;;9.53;100.00
63903;BME280;50072;50.678;13.938;2023-04-29T02:52:16;99127.00;;;9.58;100.00
63903;BME280;50072;50.678;13.938;2023-04-29T02:54:47;99125.13;;;9.60;100.00
63903;BME280;50072;50.678;13.938;2023-04-29T02:57:16;99136.88;;;9.54;100.00
63903;BME280;50072;50.678;13.938;2023-04-29T02:59:45;99146.97;;;9.44;100.00
63903;BME280;50072;50.678;13.938;2023-04-29T03:02:12;99119.13;;;9.52;100.00
63903;BME280;50072;50.678;13.938;2023-04-29T03:04:46;99110.22;;;9.53;100.00
63903;BME280;50072;50.678;13.938;2023-04-29T03:07:18;99119.78;;;9.60;100.00
63903;BME280;50072;50.678;13.938;2023-04-29T03:09:45;99107.50;;;9.54;100.00
63903;BME280;50072;50.678;13.938;2023-04-29T03:12:16;99111.78;;;9.60;100.00
63903;BME280;50072;50.678;13.938;2023-04-29T03:14:41;99111.19;;;9.50;100.00
63903;BME280;50072;50.678;13.938;2023-04-29T03:17:16;99105.19;;;9.42;100.00
63903;BME280;50072;50.678;13.938;2023-04-29T03:19:46;99103.16;;;9.50;100.00
63903;BME280;50072;50.678;13.938;2023-04-29T03:22:16;99099.88;;;9.40;100.00
63903;BME280;50072;50.678;13.938;2023-04-29T03:24:46;99088.19;;;9.44;100.00
63903;BME280;50072;50.678;13.938;2023-04-29T03:27:17;99088.28;;;9.41;100.00
63903;BME280;50072;50.678;13.938;2023-04-29T03:29:46;99094.44;;;9.45;100.00
63903;BME280;50072;50.678;13.938;2023-04-29T03:32:16;99090.16;;;9.39;100.00
63903;BME280;50072;50.678;13.938;2023-04-29T03:34:47;99094.63;;;9.37;100.00
63903;BME280;50072;50.678;13.938;2023-04-29T03:37:16;99085.66;;;9.40;100.00
63903;BME280;50072;50.678;13.938;2023-04-29T03:39:47;99080.47;;;9.35;100.00
63903;BME280;50072;50.678;13.938;2023-04-29T03:42:14;99085.06;;;9.30;100.00
63903;BME280;50072;50.678;13.938;2023-04-29T03:44:46;99085.25;;;9.24;100.00
63903;BME280;50072;50.678;13.938;2023-04-29T03:47:17;99081.72;;;9.22;100.00
63903;BME280;50072;50.678;13.938;2023-04-29T03:49:46;99084.59;;;9.15;100.00
63903;BME280;50072;50.678;13.938;2023-04-29T03:52:17;99083.84;;;9.10;100.00
63903;BME280;50072;50.678;13.938;2023-04-29T03:54:45;99083.94;;;9.07;100.00
63903;BME280;50072;50.678;13.938;2023-04-29T03:57:18;99084.03;;;9.04;100.00
63903;BME280;50072;50.678;13.938;2023-04-29T03:59:46;99092.84;;;9.06;100.00
63903;BME280;50072;50.678;13.938;2023-04-29T04:02:15;99101.69;;;9.08;100.00
63903;BME280;50072;50.678;13.938;2023-04-29T04:04:46;99094.41;;;9.13;100.00
63903;BME280;50072;50.678;13.938;2023-04-29T04:07:16;99107.00;;;9.10;100.00
63903;BME280;50072;50.678;13.938;2023-04-29T04:09:46;99101.41;;;9.18;100.00
63903;BME280;50072;50.678;13.938;2023-04-29T04:12:18;99107.00;;;9.10;100.00
63903;BME280;50072;50.678;13.938;2023-04-29T04:14:44;99103.28;;;9.15;100.00
63903;BME280;50072;50.678;13.938;2023-04-29T04:17:16;99109.38;;;9.21;100.00
63903;BME280;50072;50.678;13.938;2023-04-29T04:19:46;99105.72;;;9.23;100.00
63903;BME280;50072;50.678;13.938;2023-04-29T04:22:17;99094.88;;;9.29;100.00
63903;BME280;50072;50.678;13.938;2023-04-29T04:24:46;99102.19;;;9.23;100.00
63903;BME280;50072;50.678;13.938;2023-04-29T04:27:16;99100.31;;;9.25;100.00
63903;BME280;50072;50.678;13.938;2023-04-29T04:29:45;99106.22;;;9.36;100.00
63903;BME280;50072;50.678;13.938;2023-04-29T04:32:15;99109.66;;;9.41;100.00
63903;BME280;50072;50.678;13.938;2023-04-29T04:34:46;99106.03;;;9.44;100.00
63903;BME280;50072;50.678;13.938;2023-04-29T04:37:18;99103.91;;;9.55;100.00
63903;BME280;50072;50.678;13.938;2023-04-29T04:39:46;99102.09;;;9.56;100.00
63903;BME280;50072;50.678;13.938;2023-04-29T04:42:16;99101.41;;;9.49;100.00
63903;BME280;50072;50.678;13.938;2023-04-29T04:44:46;99108.59;;;9.47;100.00
63903;BME280;50072;50.678;13.938;2023-04-29T04:47:16;99101.25;;;9.55;100.00
63903;BME280;50072;50.678;13.938;2023-04-29T04:49:41;99101.16;;;9.58;100.00
63903;BME280;50072;50.678;13.938;2023-04-29T04:52:19;99099.63;;;9.49;100.00
63903;BME280;50072;50.678;13.938;2023-04-29T04:54:46;99105.69;;;9.55;100.00
63903;BME280;50072;50.678;13.938;2023-04-29T04:57:17;99104.91;;;9.51;100.00
63903;BME280;50072;50.678;13.938;2023-04-29T04:59:46;99104.88;;;9.53;100.00
63903;BME280;50072;50.678;13.938;2023-04-29T05:02:18;99111.69;;;9.63;100.00
63903;BME280;50072;50.678;13.938;2023-04-29T05:04:46;99115.00;;;9.71;100.00
63903;BME280;50072;50.678;13.938;2023-04-29T05:07:14;99123.03;;;9.71;100.00
63903;BME280;50072;50.678;13.938;2023-04-29T05:09:46;99117.69;;;9.71;100.00
63903;BME280;50072;50.678;13.938;2023-04-29T05:12:12;99106.34;;;9.63;100.00
63903;BME280;50072;50.678;13.938;2023-04-29T05:14:39;99102.59;;;9.68;100.00
63903;BME280;50072;50.678;13.938;2023-04-29T05:17:16;99105.13;;;9.73;100.00
63903;BME280;50072;50.678;13.938;2023-04-29T05:19:46;99111.03;;;9.84;100.00
63903;BME280;50072;50.678;13.938;2023-04-29T05:22:12;99115.25;;;9.92;100.00
63903;BME280;50072;50.678;13.938;2023-04-29T05:24:46;99115.03;;;9.99;100.00
63903;BME280;50072;50.678;13.938;2023-04-29T05:27:17;99115.56;;;10.11;100.00
63903;BME280;50072;50.678;13.938;2023-04-29T05:29:46;99115.13;;;10.25;100.00
63903;BME280;50072;50.678;13.938;2023-04-29T05:32:17;99102.66;;;10.24;100.00
63903;BME280;50072;50.678;13.938;2023-04-29T05:34:46;99110.78;;;10.21;100.00
63903;BME280;50072;50.678;13.938;2023-04-29T05:37:16;99120.88;;;10.41;100.00
63903;BME280;50072;50.678;13.938;2023-04-29T05:39:42;99124.28;;;10.44;100.00
63903;BME280;50072;50.678;13.938;2023-04-29T05:42:07;99123.28;;;10.48;100.00
63903;BME280;50072;50.678;13.938;2023-04-29T05:44:33;99130.78;;;10.64;100.00
63903;BME280;50072;50.678;13.938;2023-04-29T05:46:59;99125.72;;;10.81;100.00
63903;BME280;50072;50.678;13.938;2023-04-29T05:49:25;99129.56;;;10.99;100.00
63903;BME280;50072;50.678;13.938;2023-04-29T05:51:51;99130.50;;;11.23;100.00
63903;BME280;50072;50.678;13.938;2023-04-29T05:54:16;99130.59;;;11.20;100.00
63903;BME280;50072;50.678;13.938;2023-04-29T05:56:42;99137.47;;;11.28;100.00
63903;BME280;50072;50.678;13.938;2023-04-29T05:59:08;99134.31;;;11.16;100.00
63903;BME280;50072;50.678;13.938;2023-04-29T06:01:34;99145.16;;;11.13;100.00
63903;BME280;50072;50.678;13.938;2023-04-29T06:04:00;99139.56;;;11.19;100.00
63903;BME280;50072;50.678;13.938;2023-04-29T06:06:26;99140.16;;;11.28;100.00
63903;BME280;50072;50.678;13.938;2023-04-29T06:08:53;99135.63;;;11.30;100.00
63903;BME280;50072;50.678;13.938;2023-04-29T06:11:19;99135.16;;;11.42;100.00
63903;BME280;50072;50.678;13.938;2023-04-29T06:13:44;99138.50;;;11.49;100.00
63903;BME280;50072;50.678;13.938;2023-04-29T06:16:10;99142.84;;;11.51;100.00
63903;BME280;50072;50.678;13.938;2023-04-29T06:18:36;99146.44;;;11.52;100.00
63903;BME280;50072;50.678;13.938;2023-04-29T06:21:04;99147.28;;;11.52;100.00
63903;BME280;50072;50.678;13.938;2023-04-29T06:23:30;99148.00;;;11.57;100.00
63903;BME280;50072;50.678;13.938;2023-04-29T06:25:57;99145.47;;;11.77;100.00
63903;BME280;50072;50.678;13.938;2023-04-29T06:28:23;99145.69;;;11.96;100.00
63903;BME280;50072;50.678;13.938;2023-04-29T06:30:49;99153.31;;;12.06;100.00
63903;BME280;50072;50.678;13.938;2023-04-29T06:33:14;99149.63;;;12.09;100.00
63903;BME280;50072;50.678;13.938;2023-04-29T06:35:40;99145.38;;;12.25;100.00
63903;BME280;50072;50.678;13.938;2023-04-29T06:38:06;99146.31;;;12.47;100.00
63903;BME280;50072;50.678;13.938;2023-04-29T06:40:34;99143.06;;;12.83;100.00
63903;BME280;50072;50.678;13.938;2023-04-29T06:43:00;99133.78;;;13.10;100.00
63903;BME280;50072;50.678;13.938;2023-04-29T06:45:26;99138.97;;;13.36;100.00
63903;BME280;50072;50.678;13.938;2023-04-29T06:47:53;99145.22;;;13.36;97.34
63903;BME280;50072;50.678;13.938;2023-04-29T06:50:20;99149.81;;;13.12;94.47
63903;BME280;50072;50.678;13.938;2023-04-29T06:52:46;99153.88;;;13.02;95.38
63903;BME280;50072;50.678;13.938;2023-04-29T06:55:12;99150.91;;;12.87;95.79
63903;BME280;50072;50.678;13.938;2023-04-29T06:57:37;99141.72;;;12.71;99.21
63903;BME280;50072;50.678;13.938;2023-04-29T07:00:04;99139.47;;;12.62;100.00
63903;BME280;50072;50.678;13.938;2023-04-29T07:02:33;99139.47;;;12.62;100.00
63903;BME280;50072;50.678;13.938;2023-04-29T07:04:59;99140.88;;;12.70;99.85
63903;BME280;50072;50.678;13.938;2023-04-29T07:07:25;99140.88;;;12.91;100.00
63903;BME280;50072;50.678;13.938;2023-04-29T07:09:52;99145.13;;;12.97;97.86
63903;BME280;50072;50.678;13.938;2023-04-29T07:12:18;99153.81;;;12.81;98.02
63903;BME280;50072;50.678;13.938;2023-04-29T07:14:44;99149.78;;;12.71;98.00
63903;BME280;50072;50.678;13.938;2023-04-29T07:17:11;99149.94;;;12.68;98.41
63903;BME280;50072;50.678;13.938;2023-04-29T07:19:37;99154.06;;;12.54;99.93
63903;BME280;50072;50.678;13.938;2023-04-29T07:22:04;99150.88;;;12.45;100.00
63903;BME280;50072;50.678;13.938;2023-04-29T07:24:31;99151.69;;;12.47;100.00
63903;BME280;50072;50.678;13.938;2023-04-29T07:26:57;99149.69;;;12.52;100.00
63903;BME280;50072;50.678;13.938;2023-04-29T07:29:23;99153.44;;;12.48;100.00
63903;BME280;50072;50.678;13.938;2023-04-29T07:31:49;99156.88;;;12.51;100.00
63903;BME280;50072;50.678;13.938;2023-04-29T07:34:15;99162.41;;;12.47;100.00
63903;BME280;50072;50.678;13.938;2023-04-29T07:36:42;99160.56;;;12.49;100.00
63903;BME280;50072;50.678;13.938;2023-04-29T07:39:08;99166.16;;;12.42;100.00
63903;BME280;50072;50.678;13.938;2023-04-29T07:41:35;99169.69;;;12.45;100.00
63903;BME280;50072;50.678;13.938;2023-04-29T07:44:03;99168.22;;;12.58;100.00
63903;BME280;50072;50.678;13.938;2023-04-29T07:46:29;99166.38;;;12.60;100.00
63903;BME280;50072;50.678;13.938;2023-04-29T07:48:56;99170.41;;;12.48;100.00
63903;BME280;50072;50.678;13.938;2023-04-29T07:51:23;99174.16;;;12.44;100.00
63903;BME280;50072;50.678;13.938;2023-04-29T07:53:49;99172.28;;;12.46;100.00
63903;BME280;50072;50.678;13.938;2023-04-29T07:56:16;99169.19;;;12.35;100.00
63903;BME280;50072;50.678;13.938;2023-04-29T07:58:41;99171.00;;;12.34;100.00
63903;BME280;50072;50.678;13.938;2023-04-29T08:01:08;99180.16;;;12.29;100.00
63903;BME280;50072;50.678;13.938;2023-04-29T08:03:35;99183.16;;;12.43;100.00
63903;BME280;50072;50.678;13.938;2023-04-29T08:06:02;99183.66;;;12.31;100.00
63903;BME280;50072;50.678;13.938;2023-04-29T08:08:29;99176.78;;;12.23;100.00
63903;BME280;50072;50.678;13.938;2023-04-29T08:10:55;99175.13;;;12.43;100.00
63903;BME280;50072;50.678;13.938;2023-04-29T08:13:21;99187.53;;;12.46;100.00
63903;BME280;50072;50.678;13.938;2023-04-29T08:15:47;99191.78;;;12.51;100.00
63903;BME280;50072;50.678;13.938;2023-04-29T08:18:13;99191.94;;;12.24;100.00
63903;BME280;50072;50.678;13.938;2023-04-29T08:20:39;99196.28;;;12.05;100.00
63903;BME280;50072;50.678;13.938;2023-04-29T08:23:06;99196.09;;;12.09;100.00
63903;BME280;50072;50.678;13.938;2023-04-29T08:25:32;99214.47;;;12.20;100.00
63903;BME280;50072;50.678;13.938;2023-04-29T08:27:58;99222.78;;;12.13;100.00
63903;BME280;50072;50.678;13.938;2023-04-29T08:30:24;99214.13;;;12.06;100.00
63903;BME280;50072;50.678;13.938;2023-04-29T08:32:50;99209.56;;;12.08;100.00
63903;BME280;50072;50.678;13.938;2023-04-29T08:35:16;99212.84;;;12.16;100.00
63903;BME280;50072;50.678;13.938;2023-04-29T08:37:41;99208.88;;;12.49;100.00
63903;BME280;50072;50.678;13.938;2023-04-29T08:40:08;99214.00;;;12.77;100.00
63903;BME280;50072;50.678;13.938;2023-04-29T08:42:35;99213.09;;;12.99;100.00
63903;BME280;50072;50.678;13.938;2023-04-29T08:45:02;99205.88;;;13.21;100.00
63903;BME280;50072;50.678;13.938;2023-04-29T08:47:29;99218.25;;;13.24;100.00
63903;BME280;50072;50.678;13.938;2023-04-29T08:49:58;99212.97;;;13.22;100.00
63903;BME280;50072;50.678;13.938;2023-04-29T08:52:26;99217.53;;;13.20;100.00
63903;BME280;50072;50.678;13.938;2023-04-29T08:54:51;99217.53;;;13.20;100.00
63903;BME280;50072;50.678;13.938;2023-04-29T08:57:18;99232.16;;;13.35;100.00
63903;BME280;50072;50.678;13.938;2023-04-29T08:59:45;99221.47;;;13.54;100.00
63903;BME280;50072;50.678;13.938;2023-04-29T09:02:13;99222.66;;;13.68;100.00
63903;BME280;50072;50.678;13.938;2023-04-29T09:04:51;99225.75;;;13.79;100.00
63903;BME280;50072;50.678;13.938;2023-04-29T09:07:18;99228.03;;;13.88;100.00
63903;BME280;50072;50.678;13.938;2023-04-29T09:09:44;99225.97;;;13.93;100.00
63903;BME280;50072;50.678;13.938;2023-04-29T09:12:12;99224.59;;;14.04;98.44
63903;BME280;50072;50.678;13.938;2023-04-29T09:14:37;99212.72;;;14.28;99.33
63903;BME280;50072;50.678;13.938;2023-04-29T09:17:03;99228.25;;;14.41;97.87
63903;BME280;50072;50.678;13.938;2023-04-29T09:19:33;99216.63;;;14.59;97.46
63903;BME280;50072;50.678;13.938;2023-04-29T09:22:01;99212.34;;;14.92;95.89
63903;BME280;50072;50.678;13.938;2023-04-29T09:24:28;99217.69;;;15.11;96.94
63903;BME280;50072;50.678;13.938;2023-04-29T09:26:55;99229.50;;;15.08;88.36
63903;BME280;50072;50.678;13.938;2023-04-29T09:29:21;99229.00;;;14.63;93.60
63903;BME280;50072;50.678;13.938;2023-04-29T09:31:47;99228.34;;;14.58;97.13
63903;BME280;50072;50.678;13.938;2023-04-29T09:34:14;99222.56;;;14.85;96.98
63903;BME280;50072;50.678;13.938;2023-04-29T09:36:44;99224.09;;;15.08;97.61
63903;BME280;50072;50.678;13.938;2023-04-29T09:39:12;99230.38;;;15.44;92.68
63903;BME280;50072;50.678;13.938;2023-04-29T09:44:24;99230.28;;;16.30;92.50
63903;BME280;50072;50.678;13.938;2023-04-29T09:47:16;99236.53;;;16.30;87.15
63903;BME280;50072;50.678;13.938;2023-04-29T09:49:48;99248.97;;;16.66;84.34
63903;BME280;50072;50.678;13.938;2023-04-29T09:52:16;99244.94;;;17.66;91.71
63903;BME280;50072;50.678;13.938;2023-04-29T09:54:44;99238.22;;;18.45;77.40
63903;BME280;50072;50.678;13.938;2023-04-29T09:57:16;99240.78;;;19.43;78.32
63903;BME280;50072;50.678;13.938;2023-04-29T09:59:44;99236.34;;;19.82;77.54
63903;BME280;50072;50.678;13.938;2023-04-29T10:02:16;99234.50;;;19.43;77.49
63903;BME280;50072;50.678;13.938;2023-04-29T10:04:53;99243.34;;;18.92;77.50
63903;BME280;50072;50.678;13.938;2023-04-29T10:07:21;99243.72;;;18.58;80.36
63903;BME280;50072;50.678;13.938;2023-04-29T10:09:49;99229.84;;;18.63;80.53
63903;BME280;50072;50.678;13.938;2023-04-29T10:12:17;99228.59;;;19.23;78.25
63903;BME280;50072;50.678;13.938;2023-04-29T10:14:58;99230.00;;;20.71;73.96
63903;BME280;50072;50.678;13.938;2023-04-29T10:17:35;99221.06;;;21.30;65.71
63903;BME280;50072;50.678;13.938;2023-04-29T10:20:07;99228.06;;;22.03;63.87
63903;BME280;50072;50.678;13.938;2023-04-29T10:22:48;99223.44;;;21.10;59.91
63903;BME280;50072;50.678;13.938;2023-04-29T10:25:18;99223.16;;;20.02;64.72
63903;BME280;50072;50.678;13.938;2023-04-29T10:27:45;99233.59;;;19.29;66.64
63903;BME280;50072;50.678;13.938;2023-04-29T10:30:18;99235.88;;;18.81;66.88
63903;BME280;50072;50.678;13.938;2023-04-29T10:32:47;99231.72;;;18.75;65.18
63903;BME280;50072;50.678;13.938;2023-04-29T10:35:20;99224.09;;;18.40;66.12
63903;BME280;50072;50.678;13.938;2023-04-29T10:40:55;99211.44;;;18.68;65.58
63903;BME280;50072;50.678;13.938;2023-04-29T10:43:30;99209.09;;;18.76;63.54
63903;BME280;50072;50.678;13.938;2023-04-29T10:48:47;99212.44;;;17.21;66.05
63903;BME280;50072;50.678;13.938;2023-04-29T10:51:29;99216.81;;;17.24;65.45
63903;BME280;50072;50.678;13.938;2023-04-29T10:54:06;99218.09;;;17.02;67.71
63903;BME280;50072;50.678;13.938;2023-04-29T10:56:40;99225.44;;;17.00;70.16
63903;BME280;50072;50.678;13.938;2023-04-29T10:59:14;99227.81;;;17.21;72.68
63903;BME280;50072;50.678;13.938;2023-04-29T11:01:53;99225.56;;;16.97;64.13
63903;BME280;50072;50.678;13.938;2023-04-29T11:04:25;99241.88;;;16.80;68.41
63903;BME280;50072;50.678;13.938;2023-04-29T11:07:03;99238.47;;;16.60;71.30
63903;BME280;50072;50.678;13.938;2023-04-29T11:09:30;99227.19;;;16.37;72.18
63903;BME280;50072;50.678;13.938;2023-04-29T11:12:01;99243.50;;;16.18;71.59
63903;BME280;50072;50.678;13.938;2023-04-29T11:15:05;99243.19;;;16.41;73.53
63903;BME280;50072;50.678;13.938;2023-04-29T11:17:38;99243.38;;;16.53;71.89
63903;BME280;50072;50.678;13.938;2023-04-29T11:20:14;99242.66;;;16.50;72.08
63903;BME280;50072;50.678;13.938;2023-04-29T11:22:50;99241.28;;;16.59;68.86
63903;BME280;50072;50.678;13.938;2023-04-29T11:25:16;99246.31;;;16.49;67.19
63903;BME280;50072;50.678;13.938;2023-04-29T11:27:44;99241.97;;;16.62;67.47
63903;BME280;50072;50.678;13.938;2023-04-29T11:30:14;99258.63;;;16.86;67.30
63903;BME280;50072;50.678;13.938;2023-04-29T11:32:41;99254.19;;;16.69;65.92
63903;BME280;50072;50.678;13.938;2023-04-29T11:35:14;99245.19;;;16.37;66.59
63903;BME280;50072;50.678;13.938;2023-04-29T11:37:42;99259.94;;;16.63;66.31
63903;BME280;50072;50.678;13.938;2023-04-29T11:40:09;99257.91;;;17.45;64.87
63903;BME280;50072;50.678;13.938;2023-04-29T11:42:46;99256.31;;;17.27;64.11
63903;BME280;50072;50.678;13.938;2023-04-29T11:45:15;99263.47;;;18.32;59.98
63903;BME280;50072;50.678;13.938;2023-04-29T11:47:45;99259.34;;;19.90;56.61
63903;BME280;50072;50.678;13.938;2023-04-29T11:50:12;99258.94;;;22.72;49.34
63903;BME280;50072;50.678;13.938;2023-04-29T11:52:41;99250.69;;;24.13;44.86
63903;BME280;50072;50.678;13.938;2023-04-29T11:55:10;99252.19;;;26.06;37.04
63903;BME280;50072;50.678;13.938;2023-04-29T11:57:37;99261.97;;;29.23;33.54
63903;BME280;50072;50.678;13.938;2023-04-29T12:00:04;99247.59;;;29.03;30.05
63903;BME280;50072;50.678;13.938;2023-04-29T12:02:31;99261.00;;;29.90;30.88
63903;BME280;50072;50.678;13.938;2023-04-29T12:04:57;99266.03;;;31.15;28.45
63903;BME280;50072;50.678;13.938;2023-04-29T12:07:26;99270.50;;;31.94;27.61
63903;BME280;50072;50.678;13.938;2023-04-29T12:09:53;99276.72;;;32.11;26.33
63903;BME280;50072;50.678;13.938;2023-04-29T12:12:20;99284.78;;;30.89;26.67
63903;BME280;50072;50.678;13.938;2023-04-29T12:14:46;99286.63;;;31.67;25.86
63903;BME280;50072;50.678;13.938;2023-04-29T12:17:13;99285.88;;;31.97;26.29
63903;BME280;50072;50.678;13.938;2023-04-29T12:19:39;99297.69;;;28.38;29.07
63903;BME280;50072;50.678;13.938;2023-04-29T12:22:06;99286.22;;;30.68;27.13
63903;BME280;50072;50.678;13.938;2023-04-29T12:24:34;99292.81;;;31.38;26.85
63903;BME280;50072;50.678;13.938;2023-04-29T12:27:01;99297.78;;;27.84;30.88
63903;BME280;50072;50.678;13.938;2023-04-29T12:29:27;99286.00;;;30.22;29.02
63903;BME280;50072;50.678;13.938;2023-04-29T12:31:55;99288.44;;;31.75;25.31
63903;BME280;50072;50.678;13.938;2023-04-29T12:34:27;99305.47;;;30.45;28.37
63903;BME280;50072;50.678;13.938;2023-04-29T12:36:58;99303.22;;;30.49;27.29
63903;BME280;50072;50.678;13.938;2023-04-29T12:39:27;99310.63;;;33.11;25.22
63903;BME280;50072;50.678;13.938;2023-04-29T12:41:57;99325.44;;;33.92;24.02
63903;BME280;50072;50.678;13.938;2023-04-29T12:44:24;99316.91;;;33.35;24.51
63903;BME280;50072;50.678;13.938;2023-04-29T12:46:50;99327.94;;;31.69;26.33
63903;BME280;50072;50.678;13.938;2023-04-29T12:49:18;99330.00;;;29.99;27.90
63903;BME280;50072;50.678;13.938;2023-04-29T12:51:44;99328.38;;;28.69;30.62
63903;BME280;50072;50.678;13.938;2023-04-29T12:54:11;99333.91;;;29.79;27.92
63903;BME280;50072;50.678;13.938;2023-04-29T12:56:37;99333.63;;;27.28;30.69
63903;BME280;50072;50.678;13.938;2023-04-29T12:59:09;99336.59;;;23.78;35.34
63903;BME280;50072;50.678;13.938;2023-04-29T13:01:37;99336.75;;;23.10;38.70
63903;BME280;50072;50.678;13.938;2023-04-29T13:04:04;99338.91;;;22.95;39.53
63903;BME280;50072;50.678;13.938;2023-04-29T13:06:33;99339.41;;;22.44;39.03
63903;BME280;50072;50.678;13.938;2023-04-29T13:08:59;99350.84;;;20.53;42.90
63903;BME280;50072;50.678;13.938;2023-04-29T13:11:25;99347.91;;;19.65;45.42
63903;BME280;50072;50.678;13.938;2023-04-29T13:13:51;99346.09;;;19.38;46.79
63903;BME280;50072;50.678;13.938;2023-04-29T13:16:17;99342.28;;;20.34;44.63
63903;BME280;50072;50.678;13.938;2023-04-29T13:18:44;99352.34;;;19.66;47.57
63903;BME280;50072;50.678;13.938;2023-04-29T13:21:09;99347.03;;;19.10;47.93